createdAt,value
2018-04-19T00:00:29.212Z,88.38
2018-04-19T00:01:29.463Z,87.71
2018-04-19T00:02:29.447Z,87.9
2018-04-19T00:03:29.178Z,88
2018-04-19T00:04:29.437Z,88
2018-04-19T00:05:29.416Z,87.9
2018-04-19T00:06:29.147Z,88.09
2018-04-19T00:07:29.394Z,88.76
2018-04-19T00:08:29.382Z,88.76
2018-04-19T00:09:29.374Z,89.14
2018-04-19T00:10:29.104Z,89.52
2018-04-19T00:11:29.349Z,89.38
2018-04-19T00:12:29.081Z,89.38
2018-04-19T00:13:29.335Z,89.57
2018-04-19T00:14:29.316Z,89.57
2018-04-19T00:15:29.306Z,89.57
2018-04-19T00:16:29.035Z,89.38
2018-04-19T00:17:29.282Z,89.19
2018-04-19T00:18:29.013Z,89.19
2018-04-19T00:19:29.263Z,88.71
2018-04-19T00:20:29.252Z,88.81
2018-04-19T00:21:29.238Z,88.24
2018-04-19T00:22:29.227Z,87.67
2018-04-19T00:23:28.961Z,87.76
2018-04-19T00:24:29.205Z,87.57
2018-04-19T00:25:28.936Z,87.67
2018-04-19T00:26:29.185Z,87.76
2018-04-19T00:27:29.170Z,87.29
2018-04-19T00:28:28.905Z,87.19
2018-04-19T00:29:29.151Z,87.48
2018-04-19T00:30:28.881Z,87.01
2018-04-19T00:31:29.125Z,87.38
2018-04-19T00:32:29.117Z,87.1
2018-04-19T00:33:29.109Z,87.86
2018-04-19T00:34:29.176Z,87.29
2018-04-19T00:35:29.086Z,86.96
2018-04-19T00:36:28.812Z,86.49
2018-04-19T00:37:29.060Z,86.2
2018-04-19T00:38:29.052Z,85.11
2018-04-19T00:39:28.780Z,84.68
2018-04-19T00:40:29.022Z,84.68
2018-04-19T00:41:29.018Z,84.68
2018-04-19T00:42:29.004Z,85.25
2018-04-19T00:43:28.988Z,85.72
2018-04-19T00:44:28.722Z,85.72
2018-04-19T00:45:28.969Z,85.35
2018-04-19T00:46:28.700Z,85.53
2018-04-19T00:47:28.944Z,85.35
2018-04-19T00:48:28.933Z,85.44
2018-04-19T00:49:28.663Z,84.78
2018-04-19T00:50:28.914Z,84.87
2018-04-19T00:51:28.900Z,84.68
2018-04-19T00:52:28.887Z,84.68
2018-04-19T00:53:28.875Z,84.49
2018-04-19T00:54:28.862Z,84.59
2018-04-19T00:55:28.595Z,84.01
2018-04-19T00:56:28.840Z,84.01
2018-04-19T00:57:28.829Z,83.92
2018-04-19T00:58:28.559Z,82.69
2018-04-19T00:59:28.810Z,82.97
2018-04-19T01:00:28.793Z,83.36
2018-04-19T01:01:28.783Z,83.83
2018-04-19T01:02:28.513Z,83.26
2018-04-19T01:03:28.501Z,82.4
2018-04-19T01:04:28.746Z,80.51
2018-04-19T01:05:28.738Z,79.17
2018-04-19T01:06:28.721Z,78.7
2018-04-19T01:07:28.712Z,77.56
2018-04-19T01:08:28.750Z,77.75
2018-04-19T01:09:28.432Z,77.84
2018-04-19T01:10:28.675Z,76.9
2018-04-19T01:11:28.664Z,77.09
2018-04-19T01:12:28.393Z,76.23
2018-04-19T01:13:28.654Z,75.67
2018-04-19T01:14:28.632Z,75.57
2018-04-19T01:15:28.616Z,75.19
2018-04-19T01:16:28.606Z,75.28
2018-04-19T01:17:28.593Z,75.67
2018-04-19T01:18:28.585Z,77.28
2018-04-19T01:19:28.310Z,78.23
2018-04-19T01:20:28.299Z,78.03
2018-04-19T01:21:28.286Z,79.36
2018-04-19T01:22:28.534Z,80.22
2018-04-19T01:23:28.520Z,80.88
2018-04-19T01:24:28.511Z,81.26
2018-04-19T01:25:28.494Z,81.93
2018-04-19T01:26:28.226Z,82.69
2018-04-19T01:27:28.470Z,82.69
2018-04-19T01:28:28.463Z,81.74
2018-04-19T01:29:28.447Z,81.65
2018-04-19T01:30:28.435Z,80.51
2018-04-19T01:31:28.428Z,81.17
2018-04-19T01:32:28.410Z,81.55
2018-04-19T01:33:28.408Z,81.74
2018-04-19T01:34:28.130Z,82.4
2018-04-19T01:35:28.118Z,83.26
2018-04-19T01:36:28.363Z,83.54
2018-04-19T01:37:28.351Z,84.01
2018-04-19T01:38:28.401Z,84.3
2018-04-19T01:39:28.328Z,84.59
2018-04-19T01:40:28.317Z,84.78
2018-04-19T01:41:28.307Z,85.06
2018-04-19T01:42:28.292Z,85.35
2018-04-19T01:43:28.021Z,85.35
2018-04-19T01:44:28.008Z,85.35
2018-04-19T01:45:27.996Z,85.25
2018-04-19T01:46:27.983Z,85.16
2018-04-19T01:47:28.236Z,85.35
2018-04-19T01:48:28.218Z,85.06
2018-04-19T01:49:27.950Z,84.87
2018-04-19T01:50:27.936Z,84.49
2018-04-19T01:51:27.923Z,84.49
2018-04-19T01:52:28.178Z,84.01
2018-04-19T01:53:28.160Z,84.21
2018-04-19T01:54:28.148Z,83.45
2018-04-19T01:55:28.131Z,82.12
2018-04-19T01:56:28.123Z,82.12
2018-04-19T01:57:27.854Z,81.65
2018-04-19T01:58:28.099Z,82.21
2018-04-19T01:59:27.827Z,82.03
2018-04-19T02:00:28.069Z,81.74
2018-04-19T02:01:28.061Z,82.4
2018-04-19T02:02:28.046Z,82.69
2018-04-19T02:03:28.045Z,82.69
2018-04-19T02:04:28.058Z,81.84
2018-04-19T02:05:28.016Z,82.31
2018-04-19T02:06:27.998Z,83.07
2018-04-19T02:07:27.729Z,83.26
2018-04-19T02:08:27.980Z,83.45
2018-04-19T02:09:27.705Z,83.83
2018-04-19T02:10:27.697Z,84.01
2018-04-19T02:11:27.682Z,83.64
2018-04-19T02:12:27.927Z,83.92
2018-04-19T02:13:27.915Z,84.07
2018-04-19T02:14:27.693Z,84.17
2018-04-19T02:15:27.888Z,83.78
2018-04-19T02:16:27.877Z,83.97
2018-04-19T02:17:27.868Z,83.69
2018-04-19T02:18:27.594Z,83.59
2018-04-19T02:19:27.845Z,82.65
2018-04-19T02:20:27.830Z,83.03
2018-04-19T02:21:27.559Z,82.74
2018-04-19T02:22:27.545Z,82.93
2018-04-19T02:23:27.791Z,82.55
2018-04-19T02:24:27.524Z,82.93
2018-04-19T02:25:27.766Z,82.08
2018-04-19T02:26:27.755Z,82.17
2018-04-19T02:27:27.486Z,82.36
2018-04-19T02:28:27.733Z,82.36
2018-04-19T02:29:27.717Z,82.55
2018-04-19T02:30:27.715Z,81.6
2018-04-19T02:31:27.440Z,81.98
2018-04-19T02:32:27.682Z,82.74
2018-04-19T02:33:27.673Z,82.84
2018-04-19T02:34:27.661Z,82.65
2018-04-19T02:35:27.648Z,81.79
2018-04-19T02:36:27.644Z,81.13
2018-04-19T02:37:27.633Z,80.65
2018-04-19T02:38:27.614Z,80.08
2018-04-19T02:39:27.621Z,79.9
2018-04-19T02:40:27.595Z,79.71
2018-04-19T02:41:27.574Z,79.8
2018-04-19T02:42:27.567Z,80.18
2018-04-19T02:43:27.550Z,80.37
2018-04-19T02:44:27.542Z,81.23
2018-04-19T02:45:27.522Z,81.13
2018-04-19T02:46:27.253Z,81.26
2018-04-19T02:47:27.504Z,81.32
2018-04-19T02:48:27.486Z,81.45
2018-04-19T02:49:27.479Z,82.12
2018-04-19T02:50:27.525Z,81.65
2018-04-19T02:51:27.453Z,82.59
2018-04-19T02:52:27.179Z,82.31
2018-04-19T02:53:27.423Z,82.59
2018-04-19T02:54:27.445Z,83.07
2018-04-19T02:55:27.149Z,83.16
2018-04-19T02:56:27.385Z,83.26
2018-04-19T02:57:27.384Z,83.64
2018-04-19T02:58:27.365Z,84.4
2018-04-19T02:59:27.348Z,84.21
2018-04-19T03:00:27.337Z,84.59
2018-04-19T03:01:27.322Z,84.68
2018-04-19T03:02:27.049Z,84.97
2018-04-19T03:03:27.297Z,85.35
2018-04-19T03:04:27.031Z,85.91
2018-04-19T03:05:27.277Z,85.53
2018-04-19T03:06:27.274Z,86.01
2018-04-19T03:07:27.267Z,86.11
2018-04-19T03:08:27.245Z,86.39
2018-04-19T03:09:27.223Z,86.01
2018-04-19T03:10:27.211Z,86.2
2018-04-19T03:11:26.939Z,86.3
2018-04-19T03:12:27.264Z,86.39
2018-04-19T03:13:27.173Z,86.49
2018-04-19T03:14:27.165Z,86.68
2018-04-19T03:15:27.146Z,86.49
2018-04-19T03:16:27.144Z,86.58
2018-04-19T03:17:26.869Z,86.3
2018-04-19T03:18:27.110Z,86.11
2018-04-19T03:19:26.842Z,86.2
2018-04-19T03:20:27.176Z,85.4
2018-04-19T03:21:27.073Z,84.83
2018-04-19T03:22:27.060Z,83.78
2018-04-19T03:23:27.048Z,82.93
2018-04-19T03:24:27.036Z,82.78
2018-04-19T03:25:27.023Z,82.46
2018-04-19T03:26:27.019Z,81.36
2018-04-19T03:27:26.999Z,80.46
2018-04-19T03:28:26.994Z,80.18
2018-04-19T03:29:26.979Z,80.18
2018-04-19T03:30:26.966Z,80.13
2018-04-19T03:31:26.977Z,80.69
2018-04-19T03:32:26.938Z,80.51
2018-04-19T03:33:26.928Z,81.07
2018-04-19T03:34:26.657Z,81.74
2018-04-19T03:35:26.661Z,81.65
2018-04-19T03:36:26.900Z,81.74
2018-04-19T03:37:26.876Z,81.93
2018-04-19T03:38:26.864Z,81.17
2018-04-19T03:39:26.854Z,82.21
2018-04-19T03:40:26.841Z,82.21
2018-04-19T03:41:26.570Z,81.45
2018-04-19T03:42:26.558Z,81.17
2018-04-19T03:43:26.806Z,81.55
2018-04-19T03:44:26.534Z,81.36
2018-04-19T03:45:26.782Z,81.07
2018-04-19T03:46:26.766Z,81.55
2018-04-19T03:47:26.754Z,81.17
2018-04-19T03:48:26.742Z,81.45
2018-04-19T03:49:26.740Z,81.74
2018-04-19T03:50:26.718Z,82.45
2018-04-19T03:51:26.707Z,82.92
2018-04-19T03:52:26.694Z,83.2
2018-04-19T03:53:26.424Z,84.16
2018-04-19T03:54:26.669Z,84.25
2018-04-19T03:55:26.659Z,84.25
2018-04-19T03:56:26.645Z,84.06
2018-04-19T03:57:26.376Z,84.06
2018-04-19T03:58:26.622Z,84.34
2018-04-19T03:59:26.352Z,84.06
2018-04-19T04:00:26.601Z,84.06
2018-04-19T04:01:26.596Z,84.06
2018-04-19T04:02:26.571Z,84.53
2018-04-19T04:03:26.560Z,84.72
2018-04-19T04:04:26.550Z,85.01
2018-04-19T04:05:26.537Z,85.11
2018-04-19T04:06:26.273Z,85.86
2018-04-19T04:07:26.511Z,85.58
2018-04-19T04:08:26.244Z,85.58
2018-04-19T04:09:26.490Z,85.68
2018-04-19T04:10:26.222Z,85.96
2018-04-19T04:11:26.465Z,85.58
2018-04-19T04:12:26.451Z,85.58
2018-04-19T04:13:26.444Z,85.68
2018-04-19T04:14:26.177Z,86.43
2018-04-19T04:15:26.418Z,86.38
2018-04-19T04:16:26.480Z,86.19
2018-04-19T04:17:26.397Z,86
2018-04-19T04:18:26.126Z,86.57
2018-04-19T04:19:26.384Z,87.24
2018-04-19T04:20:26.368Z,86.67
2018-04-19T04:21:26.347Z,86.47
2018-04-19T04:22:26.082Z,86.29
2018-04-19T04:23:26.324Z,86.47
2018-04-19T04:24:26.311Z,86.47
2018-04-19T04:25:26.053Z,87.24
2018-04-19T04:26:26.289Z,87.14
2018-04-19T04:27:26.277Z,87.14
2018-04-19T04:28:26.267Z,87.71
2018-04-19T04:29:26.270Z,88.19
2018-04-19T04:30:26.244Z,88.57
2018-04-19T04:31:26.231Z,88.95
2018-04-19T04:32:26.221Z,88.28
2018-04-19T04:33:26.214Z,88.76
2018-04-19T04:34:25.940Z,88.76
2018-04-19T04:35:26.188Z,88.85
2018-04-19T04:36:26.174Z,88.76
2018-04-19T04:37:26.161Z,88.9
2018-04-19T04:38:26.157Z,89.28
2018-04-19T04:39:25.931Z,88.8
2018-04-19T04:40:25.870Z,88.9
2018-04-19T04:41:26.120Z,89.66
2018-04-19T04:42:26.113Z,89.56
2018-04-19T04:43:26.106Z,89.75
2018-04-19T04:44:26.085Z,89.66
2018-04-19T04:45:26.079Z,89.66
2018-04-19T04:46:26.063Z,90.04
2018-04-19T04:47:25.794Z,90.33
2018-04-19T04:48:26.044Z,90.23
2018-04-19T04:49:26.029Z,90.99
2018-04-19T04:50:25.759Z,90.7
2018-04-19T04:51:26.006Z,90.99
2018-04-19T04:52:25.992Z,90.8
2018-04-19T04:53:25.986Z,91.08
2018-04-19T04:54:25.972Z,91.47
2018-04-19T04:55:25.703Z,91.13
2018-04-19T04:56:25.949Z,91.75
2018-04-19T04:57:25.940Z,91.75
2018-04-19T04:58:25.935Z,92.08
2018-04-19T04:59:25.917Z,91.99
2018-04-19T05:00:25.909Z,91.99
2018-04-19T05:01:25.639Z,92.27
2018-04-19T05:02:25.886Z,92.27
2018-04-19T05:03:25.875Z,92.08
2018-04-19T05:04:25.607Z,92.08
2018-04-19T05:05:25.855Z,92.18
2018-04-19T05:06:25.841Z,92.08
2018-04-19T05:07:25.577Z,92.36
2018-04-19T05:08:25.832Z,93.04
2018-04-19T05:09:25.813Z,92.94
2018-04-19T05:10:25.545Z,92.18
2018-04-19T05:11:25.807Z,93.04
2018-04-19T05:12:25.783Z,93.13
2018-04-19T05:13:25.771Z,93.13
2018-04-19T05:14:25.833Z,93.51
2018-04-19T05:15:25.491Z,93.18
2018-04-19T05:16:25.735Z,93.65
2018-04-19T05:17:25.730Z,93.46
2018-04-19T05:18:25.717Z,93.55
2018-04-19T05:19:25.705Z,93.84
2018-04-19T05:20:25.788Z,93.74
2018-04-19T05:21:25.686Z,94.32
2018-04-19T05:22:25.420Z,94.13
2018-04-19T05:23:25.407Z,94.32
2018-04-19T05:24:25.659Z,94.32
2018-04-19T05:25:25.394Z,94.22
2018-04-19T05:26:25.377Z,94.7
2018-04-19T05:27:25.367Z,94.32
2018-04-19T05:28:25.614Z,94.42
2018-04-19T05:29:25.345Z,94.84
2018-04-19T05:30:25.337Z,94.65
2018-04-19T05:31:25.329Z,94.27
2018-04-19T05:32:25.574Z,94.46
2018-04-19T05:33:25.601Z,94.46
2018-04-19T05:34:25.566Z,94.27
2018-04-19T05:35:25.288Z,94.93
2018-04-19T05:36:25.277Z,94.56
2018-04-19T05:37:25.528Z,94.37
2018-04-19T05:38:25.518Z,94.84
2018-04-19T05:39:25.503Z,94.37
2018-04-19T05:40:25.239Z,95.12
2018-04-19T05:41:25.488Z,94.74
2018-04-19T05:42:25.488Z,95.12
2018-04-19T05:43:25.469Z,95.46
2018-04-19T05:44:25.244Z,94.7
2018-04-19T05:45:25.189Z,95.08
2018-04-19T05:46:25.439Z,95.17
2018-04-19T05:47:25.170Z,94.79
2018-04-19T05:48:25.418Z,94.79
2018-04-19T05:49:25.448Z,94.98
2018-04-19T05:50:25.408Z,95.08
2018-04-19T05:51:25.389Z,94.89
2018-04-19T05:52:25.401Z,94.6
2018-04-19T05:53:25.375Z,95.08
2018-04-19T05:54:25.504Z,94.89
2018-04-19T05:55:25.353Z,94.84
2018-04-19T05:56:25.346Z,95.22
2018-04-19T05:57:25.336Z,94.56
2018-04-19T05:58:25.331Z,94.46
2018-04-19T05:59:25.316Z,94.93
2018-04-19T06:00:25.305Z,94.56
2018-04-19T06:01:25.304Z,94.65
2018-04-19T06:02:25.295Z,94.56
2018-04-19T06:03:25.285Z,94.56
2018-04-19T06:04:25.271Z,94.74
2018-04-19T06:05:25.262Z,94.37
2018-04-19T06:06:25.004Z,94.65
2018-04-19T06:07:25.247Z,94.65
2018-04-19T06:08:25.242Z,94.74
2018-04-19T06:09:25.231Z,94.65
2018-04-19T06:10:24.962Z,94.84
2018-04-19T06:11:25.210Z,94.56
2018-04-19T06:12:25.201Z,94.89
2018-04-19T06:13:25.191Z,95.08
2018-04-19T06:14:25.187Z,94.51
2018-04-19T06:15:25.177Z,94.32
2018-04-19T06:16:25.170Z,94.32
2018-04-19T06:17:25.164Z,94.12
2018-04-19T06:18:25.153Z,94.51
2018-04-19T06:19:25.147Z,94.51
2018-04-19T06:20:25.136Z,94.22
2018-04-19T06:21:25.139Z,94.51
2018-04-19T06:22:25.121Z,94.51
2018-04-19T06:23:24.851Z,94.41
2018-04-19T06:24:24.842Z,94.7
2018-04-19T06:25:25.093Z,94.22
2018-04-19T06:26:25.085Z,94.32
2018-04-19T06:27:24.818Z,94.32
2018-04-19T06:28:24.813Z,94.03
2018-04-19T06:29:24.802Z,94.7
2018-04-19T06:30:25.169Z,94.51
2018-04-19T06:31:25.047Z,94.32
2018-04-19T06:32:25.042Z,94.03
2018-04-19T06:33:25.030Z,93.98
2018-04-19T06:34:24.769Z,93.98
2018-04-19T06:35:25.017Z,93.7
2018-04-19T06:36:25.006Z,93.6
2018-04-19T06:37:24.996Z,93.12
2018-04-19T06:38:24.731Z,93.22
2018-04-19T06:39:24.990Z,92.21
2018-04-19T06:40:24.977Z,91.83
2018-04-19T06:41:24.708Z,90.45
2018-04-19T06:42:24.700Z,88.87
2018-04-19T06:43:24.953Z,84.27
2018-04-19T06:44:24.959Z,82.43
2018-04-19T06:45:24.935Z,80.08
2018-04-19T06:46:24.933Z,76.39
2018-04-19T06:47:24.670Z,72.72
2018-04-19T06:48:24.923Z,73.24
2018-04-19T06:49:24.937Z,69.66
2018-04-19T06:50:24.907Z,64.02
2018-04-19T06:51:24.646Z,60.33
2018-04-19T06:52:24.898Z,59.04
2018-04-19T06:53:24.638Z,54.28
2018-04-19T06:54:24.889Z,49.48
2018-04-19T06:55:24.884Z,45.86
2018-04-19T06:56:24.632Z,42.99
2018-04-19T06:57:24.623Z,43.3
2018-04-19T06:58:24.874Z,41.48
2018-04-19T06:59:24.616Z,40.15
2018-04-19T07:00:24.872Z,38.62
2018-04-19T07:01:24.612Z,37.96
2018-04-19T07:02:24.611Z,39.8
2018-04-19T07:03:24.863Z,35.36
2018-04-19T07:04:24.863Z,35.96
2018-04-19T07:05:24.863Z,35.01
2018-04-19T07:06:24.863Z,35.01
2018-04-19T07:07:24.868Z,33.84
2018-04-19T07:08:24.867Z,34.53
2018-04-19T07:09:24.868Z,34.81
2018-04-19T07:10:24.865Z,34.91
2018-04-19T07:11:24.865Z,35.59
2018-04-19T07:12:24.874Z,35.88
2018-04-19T07:13:24.871Z,35.41
2018-04-19T07:14:24.881Z,32.62
2018-04-19T07:15:24.869Z,34.17
2018-04-19T07:16:24.874Z,31.37
2018-04-19T07:17:24.873Z,27.59
2018-04-19T07:18:24.876Z,28.96
2018-04-19T07:19:24.618Z,27.7
2018-04-19T07:20:24.878Z,30.24
2018-04-19T07:21:24.622Z,25.48
2018-04-19T07:22:24.623Z,23.54
2018-04-19T07:23:24.626Z,23.25
2018-04-19T07:24:24.887Z,24.32
2018-04-19T07:25:24.887Z,24.41
2018-04-19T07:26:24.889Z,22.56
2018-04-19T07:27:24.903Z,21.88
2018-04-19T07:28:24.899Z,22.86
2018-04-19T07:29:24.898Z,24.71
2018-04-19T07:30:24.642Z,24.4
2018-04-19T07:31:24.648Z,22.17
2018-04-19T07:32:24.989Z,22.83
2018-04-19T07:33:24.645Z,23.41
2018-04-19T07:34:24.926Z,25.24
2018-04-19T07:35:24.910Z,26.68
2018-04-19T07:36:24.910Z,27.15
2018-04-19T07:37:24.907Z,29.37
2018-04-19T07:38:24.909Z,30.23
2018-04-19T07:39:24.914Z,29.64
2018-04-19T07:40:24.913Z,29.34
2018-04-19T07:41:24.913Z,30.39
2018-04-19T07:42:24.655Z,32.6
2018-04-19T07:43:24.914Z,31.71
2018-04-19T07:44:24.656Z,31.51
2018-04-19T07:45:24.917Z,33.72
2018-04-19T07:46:24.926Z,34.36
2018-04-19T07:47:24.659Z,33.57
2018-04-19T07:48:24.915Z,34.22
2018-04-19T07:49:24.660Z,35.58
2018-04-19T07:50:24.916Z,38.06
2018-04-19T07:51:24.935Z,36.11
2018-04-19T07:52:24.914Z,37.18
2018-04-19T07:53:24.917Z,38.22
2018-04-19T07:54:24.923Z,40.05
2018-04-19T07:55:24.659Z,38.49
2018-04-19T07:56:24.919Z,38.1
2018-04-19T07:57:24.919Z,39.45
2018-04-19T07:58:24.914Z,41.18
2018-04-19T07:59:24.915Z,40.68
2018-04-19T08:00:24.917Z,40.3
2018-04-19T08:01:24.657Z,38.95
2018-04-19T08:02:24.921Z,39.53
2018-04-19T08:03:25.005Z,40.2
2018-04-19T08:04:24.947Z,41.05
2018-04-19T08:05:24.961Z,42.6
2018-04-19T08:06:24.922Z,44.24
2018-04-19T08:07:24.652Z,43.37
2018-04-19T08:08:24.651Z,42.5
2018-04-19T08:09:24.651Z,41.83
2018-04-19T08:10:24.911Z,41.45
2018-04-19T08:11:24.737Z,41.16
2018-04-19T08:12:24.651Z,39.81
2018-04-19T08:13:24.914Z,40.39
2018-04-19T08:14:24.647Z,39.04
2018-04-19T08:15:24.646Z,36.07
2018-04-19T08:16:24.643Z,34.81
2018-04-19T08:17:24.899Z,35.68
2018-04-19T08:18:24.641Z,35.58
2018-04-19T08:19:24.903Z,36.74
2018-04-19T08:20:24.900Z,37.22
2018-04-19T08:21:24.900Z,37.32
2018-04-19T08:22:24.896Z,37.43
2018-04-19T08:23:24.897Z,39.26
2018-04-19T08:24:24.638Z,38.97
2018-04-19T08:25:24.633Z,38.01
2018-04-19T08:26:24.893Z,37.24
2018-04-19T08:27:24.891Z,37.34
2018-04-19T08:28:24.890Z,37.24
2018-04-19T08:29:24.636Z,39.36
2018-04-19T08:30:24.891Z,40.41
2018-04-19T08:31:24.886Z,42.82
2018-04-19T08:32:24.882Z,44.26
2018-04-19T08:33:24.670Z,44.17
2018-04-19T08:34:24.883Z,45.51
2018-04-19T08:35:24.680Z,43.49
2018-04-19T08:36:24.877Z,43.11
2018-04-19T08:37:24.879Z,38.87
2018-04-19T08:38:24.874Z,41.56
2018-04-19T08:39:24.621Z,41.95
2018-04-19T08:40:24.874Z,45.13
2018-04-19T08:41:24.618Z,41.95
2018-04-19T08:42:24.872Z,40.8
2018-04-19T08:43:24.870Z,41.56
2018-04-19T08:44:24.612Z,41.66
2018-04-19T08:45:24.612Z,38.97
2018-04-19T08:46:24.867Z,39.93
2018-04-19T08:47:24.866Z,37.22
2018-04-19T08:48:24.869Z,39.91
2018-04-19T08:49:24.861Z,42.8
2018-04-19T08:50:24.860Z,42.5
2018-04-19T08:51:24.861Z,38.78
2018-04-19T08:52:24.863Z,40.61
2018-04-19T08:53:24.868Z,40.8
2018-04-19T08:54:24.857Z,40.03
2018-04-19T08:55:24.856Z,42.91
2018-04-19T08:56:24.604Z,45.03
2018-04-19T08:57:24.853Z,44.26
2018-04-19T08:58:24.853Z,42.82
2018-04-19T08:59:24.852Z,43.3
2018-04-19T09:00:24.850Z,41.08
2018-04-19T09:01:24.849Z,42.63
2018-04-19T09:02:24.845Z,45.51
2018-04-19T09:03:24.589Z,43.97
2018-04-19T09:04:24.588Z,41.76
2018-04-19T09:05:24.587Z,42.53
2018-04-19T09:06:24.841Z,40.22
2018-04-19T09:07:24.586Z,41.18
2018-04-19T09:08:24.848Z,42.93
2018-04-19T09:09:24.842Z,42.26
2018-04-19T09:10:24.837Z,41.49
2018-04-19T09:11:24.839Z,41.88
2018-04-19T09:12:24.577Z,42.07
2018-04-19T09:13:24.844Z,39.56
2018-04-19T09:14:24.842Z,40.24
2018-04-19T09:15:24.833Z,41.3
2018-04-19T09:16:24.838Z,41.68
2018-04-19T09:17:24.829Z,40.24
2018-04-19T09:18:24.829Z,40.43
2018-04-19T09:19:24.573Z,41.68
2018-04-19T09:20:24.825Z,41.22
2018-04-19T09:21:24.825Z,40.63
2018-04-19T09:22:24.886Z,36.02
2018-04-19T09:23:24.823Z,36.77
2018-04-19T09:24:24.576Z,39.59
2018-04-19T09:25:24.563Z,39.78
2018-04-19T09:26:24.562Z,40.16
2018-04-19T09:27:24.817Z,39.2
2018-04-19T09:28:24.817Z,39.97
2018-04-19T09:29:24.559Z,37.27
2018-04-19T09:30:24.820Z,38.33
2018-04-19T09:31:24.816Z,39.97
2018-04-19T09:32:24.819Z,40.94
2018-04-19T09:33:24.821Z,38.62
2018-04-19T09:34:24.813Z,38.04
2018-04-19T09:35:24.556Z,39.87
2018-04-19T09:36:24.815Z,38.04
2018-04-19T09:37:24.813Z,39.2
2018-04-19T09:38:24.809Z,39.87
2018-04-19T09:39:24.554Z,39.49
2018-04-19T09:40:24.551Z,40.94
2018-04-19T09:41:24.807Z,39.11
2018-04-19T09:42:24.809Z,37.95
2018-04-19T09:43:24.809Z,37.46
2018-04-19T09:44:24.805Z,38.62
2018-04-19T09:45:24.806Z,40.84
2018-04-19T09:46:24.809Z,40.74
2018-04-19T09:47:24.805Z,39.49
2018-04-19T09:48:24.542Z,40.57
2018-04-19T09:49:24.542Z,38.93
2018-04-19T09:50:24.799Z,36.23
2018-04-19T09:51:24.798Z,35.64
2018-04-19T09:52:24.539Z,35.73
2018-04-19T09:53:24.801Z,35.93
2018-04-19T09:54:24.794Z,37.27
2018-04-19T09:55:24.839Z,38.16
2018-04-19T09:56:24.793Z,38.35
2018-04-19T09:57:24.806Z,38.45
2018-04-19T09:58:24.534Z,37.96
2018-04-19T09:59:24.790Z,39.12
2018-04-19T10:00:24.535Z,36.43
2018-04-19T10:01:24.789Z,37.58
2018-04-19T10:02:24.943Z,38.93
2018-04-19T10:03:24.872Z,38.26
2018-04-19T10:04:24.531Z,37.39
2018-04-19T10:05:24.788Z,36.52
2018-04-19T10:06:24.789Z,35.27
2018-04-19T10:07:24.530Z,34.59
2018-04-19T10:08:24.786Z,35.75
2018-04-19T10:09:24.788Z,36.71
2018-04-19T10:10:24.871Z,37.96
2018-04-19T10:11:24.791Z,37.58
2018-04-19T10:12:24.783Z,40.19
2018-04-19T10:13:24.783Z,39.72
2018-04-19T10:14:24.787Z,38.46
2018-04-19T10:15:24.527Z,37.89
2018-04-19T10:16:24.528Z,35.19
2018-04-19T10:17:24.784Z,33.94
2018-04-19T10:18:24.525Z,33.55
2018-04-19T10:19:24.524Z,35.77
2018-04-19T10:20:24.784Z,33.55
2018-04-19T10:21:24.952Z,34.7
2018-04-19T10:22:24.782Z,35
2018-04-19T10:23:24.786Z,33.84
2018-04-19T10:24:24.783Z,33.36
2018-04-19T10:25:24.525Z,34.61
2018-04-19T10:26:24.779Z,33.55
2018-04-19T10:27:24.562Z,33.65
2018-04-19T10:28:24.525Z,33.26
2018-04-19T10:29:24.521Z,32.97
2018-04-19T10:30:24.784Z,33.17
2018-04-19T10:31:24.522Z,35.48
2018-04-19T10:32:24.519Z,33.55
2018-04-19T10:33:24.780Z,34.8
2018-04-19T10:34:24.526Z,32.87
2018-04-19T10:35:24.774Z,35.1
2018-04-19T10:36:24.776Z,33.94
2018-04-19T10:37:24.521Z,32.78
2018-04-19T10:38:24.520Z,33.74
2018-04-19T10:39:24.775Z,35.19
2018-04-19T10:40:24.517Z,32.01
2018-04-19T10:41:24.785Z,33.36
2018-04-19T10:42:24.779Z,33.45
2018-04-19T10:43:24.778Z,33.95
2018-04-19T10:44:24.516Z,32.6
2018-04-19T10:45:24.777Z,35.19
2018-04-19T10:46:24.775Z,31.35
2018-04-19T10:47:24.516Z,30
2018-04-19T10:48:24.782Z,30.94
2018-04-19T10:49:24.518Z,30.48
2018-04-19T10:50:24.517Z,30.37
2018-04-19T10:51:24.778Z,30.96
2018-04-19T10:52:24.517Z,31.35
2018-04-19T10:53:24.774Z,32.12
2018-04-19T10:54:24.524Z,34.44
2018-04-19T10:55:24.772Z,31.35
2018-04-19T10:56:24.770Z,33.95
2018-04-19T10:57:24.515Z,32.51
2018-04-19T10:58:24.777Z,33.76
2018-04-19T10:59:24.772Z,33.86
2018-04-19T11:00:24.774Z,31.63
2018-04-19T11:01:24.772Z,32.31
2018-04-19T11:02:24.772Z,32.79
2018-04-19T11:03:24.515Z,33.28
2018-04-19T11:04:24.776Z,33.37
2018-04-19T11:05:24.514Z,32.6
2018-04-19T11:06:24.768Z,33.86
2018-04-19T11:07:24.772Z,36.93
2018-04-19T11:08:24.769Z,36.15
2018-04-19T11:09:24.781Z,36.17
2018-04-19T11:10:24.770Z,36.55
2018-04-19T11:11:24.514Z,35.11
2018-04-19T11:12:24.771Z,36.75
2018-04-19T11:13:24.773Z,37.71
2018-04-19T11:14:24.774Z,36.17
2018-04-19T11:15:24.773Z,33.95
2018-04-19T11:16:24.771Z,38.1
2018-04-19T11:17:24.775Z,40.42
2018-04-19T11:18:24.515Z,38.68
2018-04-19T11:19:24.773Z,37.52
2018-04-19T11:20:24.513Z,34.94
2018-04-19T11:21:24.774Z,39.26
2018-04-19T11:22:24.518Z,37.81
2018-04-19T11:23:24.768Z,37.04
2018-04-19T11:24:24.770Z,38.29
2018-04-19T11:25:24.777Z,40.05
2018-04-19T11:26:24.775Z,39.37
2018-04-19T11:27:24.771Z,37.73
2018-04-19T11:28:24.772Z,37.04
2018-04-19T11:29:24.774Z,36.94
2018-04-19T11:30:24.771Z,37.71
2018-04-19T11:31:24.771Z,36.94
2018-04-19T11:32:24.774Z,37.71
2018-04-19T11:33:24.778Z,37.23
2018-04-19T11:34:24.778Z,37.52
2018-04-19T11:35:24.773Z,33.78
2018-04-19T11:36:24.774Z,36.17
2018-04-19T11:37:24.775Z,37.35
2018-04-19T11:38:24.517Z,37.06
2018-04-19T11:39:24.774Z,37.62
2018-04-19T11:40:24.518Z,35.42
2018-04-19T11:41:24.518Z,37.93
2018-04-19T11:42:24.776Z,40.05
2018-04-19T11:43:24.775Z,36.96
2018-04-19T11:44:24.530Z,38.31
2018-04-19T11:45:24.777Z,36.87
2018-04-19T11:46:24.783Z,36.96
2018-04-19T11:47:24.521Z,37.15
2018-04-19T11:48:24.786Z,38.6
2018-04-19T11:49:24.779Z,33.58
2018-04-19T11:50:24.521Z,32.81
2018-04-19T11:51:24.782Z,32.33
2018-04-19T11:52:24.780Z,33.29
2018-04-19T11:53:24.781Z,33.29
2018-04-19T11:54:24.783Z,32.14
2018-04-19T11:55:24.785Z,30.21
2018-04-19T11:56:24.781Z,31.83
2018-04-19T11:57:24.783Z,35.5
2018-04-19T11:58:24.785Z,37.04
2018-04-19T11:59:24.527Z,37.25
2018-04-19T12:00:24.527Z,38.01
2018-04-19T12:01:24.785Z,37.52
2018-04-19T12:02:24.789Z,37.25
2018-04-19T12:03:24.793Z,36.67
2018-04-19T12:04:24.528Z,35.11
2018-04-19T12:05:24.786Z,34.64
2018-04-19T12:06:24.531Z,35.8
2018-04-19T12:07:24.528Z,38.21
2018-04-19T12:08:24.792Z,35.32
2018-04-19T12:09:24.789Z,35.52
2018-04-19T12:10:24.537Z,39.18
2018-04-19T12:11:24.792Z,37.63
2018-04-19T12:12:24.533Z,37.25
2018-04-19T12:13:24.533Z,37.06
2018-04-19T12:14:24.796Z,39.57
2018-04-19T12:15:24.802Z,38.51
2018-04-19T12:16:24.797Z,36.29
2018-04-19T12:17:24.792Z,37.15
2018-04-19T12:18:24.792Z,36
2018-04-19T12:19:24.796Z,36.09
2018-04-19T12:20:24.797Z,38.7
2018-04-19T12:21:24.535Z,38.51
2018-04-19T12:22:24.793Z,37.63
2018-04-19T12:23:24.796Z,38.31
2018-04-19T12:24:24.803Z,38.12
2018-04-19T12:25:24.797Z,40.15
2018-04-19T12:26:24.540Z,41.02
2018-04-19T12:27:24.540Z,41.2
2018-04-19T12:28:24.799Z,42.08
2018-04-19T12:29:24.802Z,39.09
2018-04-19T12:30:24.799Z,41.98
2018-04-19T12:31:24.543Z,38.99
2018-04-19T12:32:24.805Z,37.63
2018-04-19T12:33:24.544Z,39.37
2018-04-19T12:34:24.801Z,38.02
2018-04-19T12:35:24.802Z,40.63
2018-04-19T12:36:24.804Z,40.53
2018-04-19T12:37:24.809Z,38.41
2018-04-19T12:38:24.807Z,40.05
2018-04-19T12:39:24.808Z,41.88
2018-04-19T12:40:24.551Z,40.34
2018-04-19T12:41:24.808Z,37.73
2018-04-19T12:42:24.816Z,38.6
2018-04-19T12:43:24.858Z,36.3
2018-04-19T12:44:24.806Z,37.75
2018-04-19T12:45:24.809Z,37.08
2018-04-19T12:46:24.552Z,37.46
2018-04-19T12:47:24.553Z,35.82
2018-04-19T12:48:24.554Z,35.05
2018-04-19T12:49:24.815Z,34.76
2018-04-19T12:50:24.812Z,33.6
2018-04-19T12:51:24.813Z,34.64
2018-04-19T12:52:24.820Z,38.31
2018-04-19T12:53:24.815Z,38.99
2018-04-19T12:54:24.814Z,35.63
2018-04-19T12:55:24.817Z,38.04